createdAt,value
2018-07-27T00:00:58.406Z,58.47
2018-07-27T00:01:58.392Z,58.15
2018-07-27T00:02:58.376Z,58.47
2018-07-27T00:03:58.364Z,58.18
2018-07-27T00:04:58.347Z,57.70
2018-07-27T00:05:58.333Z,57.99
2018-07-27T00:06:58.318Z,58.37
2018-07-27T00:07:58.303Z,58.37
2018-07-27T00:08:58.288Z,59.15
2018-07-27T00:09:58.274Z,58.76
2018-07-27T00:10:58.259Z,59.12
2018-07-27T00:11:58.245Z,58.76
2018-07-27T00:12:58.228Z,59.05
2018-07-27T00:13:58.214Z,58.93
2018-07-27T00:14:58.201Z,59.05
2018-07-27T00:15:58.186Z,59.22
2018-07-27T00:16:58.170Z,58.93
2018-07-27T00:17:58.156Z,59.51
2018-07-27T00:18:58.140Z,60.18
2018-07-27T00:19:58.127Z,59.99
2018-07-27T00:20:58.111Z,60.28
2018-07-27T00:21:58.096Z,60.38
2018-07-27T00:22:58.083Z,60.28
2018-07-27T00:23:58.069Z,60.28
2018-07-27T00:24:58.051Z,59.89
2018-07-27T00:25:58.036Z,60.28
2018-07-27T00:26:58.023Z,60.47
2018-07-27T00:27:58.008Z,60.38
2018-07-27T00:28:57.991Z,60.73
2018-07-27T00:29:57.976Z,60.57
2018-07-27T00:30:57.962Z,60.86
2018-07-27T00:31:57.948Z,60.57
2018-07-27T00:32:57.932Z,60.67
2018-07-27T00:33:57.924Z,61.25
2018-07-27T00:34:57.902Z,60.76
2018-07-27T00:35:57.888Z,61.54
2018-07-27T00:36:57.872Z,61.73
2018-07-27T00:37:57.857Z,61.12
2018-07-27T00:38:57.843Z,60.96
2018-07-27T00:39:57.828Z,61.60
2018-07-27T00:40:57.810Z,61.15
2018-07-27T00:41:57.797Z,61.54
2018-07-27T00:42:57.781Z,61.51
2018-07-27T00:43:57.766Z,62.18
2018-07-27T00:44:57.750Z,62.28
2018-07-27T00:45:57.740Z,62.28
2018-07-27T00:46:57.721Z,62.76
2018-07-27T00:47:57.705Z,62.57
2018-07-27T00:48:57.691Z,63.24
2018-07-27T00:49:57.675Z,63.15
2018-07-27T00:50:57.662Z,62.76
2018-07-27T00:51:57.646Z,63.15
2018-07-27T00:52:57.629Z,62.47
2018-07-27T00:53:57.613Z,62.66
2018-07-27T00:54:57.600Z,63.05
2018-07-27T00:55:57.584Z,62.86
2018-07-27T00:56:57.568Z,63.24
2018-07-27T00:57:57.561Z,63.43
2018-07-27T00:58:57.539Z,63.34
2018-07-27T00:59:57.538Z,63.53
2018-07-27T01:00:57.510Z,63.24
2018-07-27T01:01:57.491Z,63.43
2018-07-27T01:02:57.477Z,63.24
2018-07-27T01:03:57.463Z,63.89
2018-07-27T01:04:57.446Z,63.63
2018-07-27T01:05:57.431Z,63.73
2018-07-27T01:06:57.415Z,64.01
2018-07-27T01:07:57.400Z,64.01
2018-07-27T01:08:57.384Z,63.43
2018-07-27T01:09:57.368Z,64.37
2018-07-27T01:10:57.353Z,64.86
2018-07-27T01:11:57.340Z,64.47
2018-07-27T01:12:57.322Z,64.66
2018-07-27T01:13:57.307Z,65.43
2018-07-27T01:14:57.291Z,65.53
2018-07-27T01:15:57.277Z,65.14
2018-07-27T01:16:57.262Z,64.86
2018-07-27T01:17:57.247Z,65.24
2018-07-27T01:18:57.229Z,65.82
2018-07-27T01:19:57.215Z,65.34
2018-07-27T01:20:57.201Z,65.14
2018-07-27T01:21:57.184Z,65.72
2018-07-27T01:22:57.167Z,66.01
2018-07-27T01:23:57.153Z,65.91
2018-07-27T01:24:57.135Z,65.63
2018-07-27T01:25:57.121Z,66.01
2018-07-27T01:26:57.105Z,65.82
2018-07-27T01:27:57.089Z,65.72
2018-07-27T01:28:57.073Z,65.91
2018-07-27T01:29:57.057Z,66.30
2018-07-27T01:30:57.042Z,66.59
2018-07-27T01:31:57.028Z,66.49
2018-07-27T01:32:57.011Z,67.14
2018-07-27T01:33:56.995Z,67.62
2018-07-27T01:34:56.980Z,67.43
2018-07-27T01:35:56.964Z,67.52
2018-07-27T01:36:56.948Z,67.43
2018-07-27T01:37:56.932Z,67.62
2018-07-27T01:38:56.917Z,67.81
2018-07-27T01:39:56.902Z,67.43
2018-07-27T01:40:56.886Z,67.43
2018-07-27T01:41:56.870Z,67.23
2018-07-27T01:42:56.855Z,68.39
2018-07-27T01:43:56.839Z,68.39
2018-07-27T01:44:56.823Z,67.91
2018-07-27T01:45:56.807Z,67.91
2018-07-27T01:46:56.791Z,68.01
2018-07-27T01:47:56.778Z,68.29
2018-07-27T01:48:56.759Z,67.81
2018-07-27T01:49:56.744Z,67.81
2018-07-27T01:50:56.793Z,68.29
2018-07-27T01:51:56.712Z,67.91
2018-07-27T01:52:56.700Z,68.19
2018-07-27T01:53:56.680Z,68.01
2018-07-27T01:54:56.664Z,68.01
2018-07-27T01:55:56.650Z,68.49
2018-07-27T01:56:56.632Z,68.68
2018-07-27T01:57:56.617Z,68.77
2018-07-27T01:58:56.602Z,69.64
2018-07-27T01:59:56.587Z,68.97
2018-07-27T02:00:56.570Z,69.35
2018-07-27T02:01:56.554Z,68.59
2018-07-27T02:02:56.538Z,68.87
2018-07-27T02:03:56.523Z,69.35
2018-07-27T02:04:56.508Z,68.97
2018-07-27T02:05:56.494Z,69.55
2018-07-27T02:06:56.475Z,69.49
2018-07-27T02:07:56.459Z,68.81
2018-07-27T02:08:56.442Z,69.10
2018-07-27T02:09:56.431Z,70.03
2018-07-27T02:10:56.413Z,69.68
2018-07-27T02:11:56.396Z,69.55
2018-07-27T02:12:56.426Z,69.74
2018-07-27T02:13:56.365Z,69.84
2018-07-27T02:14:56.349Z,70.06
2018-07-27T02:15:56.333Z,70.70
2018-07-27T02:16:56.317Z,70.61
2018-07-27T02:17:56.301Z,70.70
2018-07-27T02:18:56.287Z,70.51
2018-07-27T02:19:56.270Z,70.61
2018-07-27T02:20:56.252Z,70.42
2018-07-27T02:21:56.238Z,70.42
2018-07-27T02:22:56.221Z,70.61
2018-07-27T02:23:56.210Z,71.38
2018-07-27T02:24:56.191Z,71.00
2018-07-27T02:25:56.176Z,71.58
2018-07-27T02:26:56.158Z,71.48
2018-07-27T02:27:56.144Z,71.67
2018-07-27T02:28:56.127Z,72.69
2018-07-27T02:29:56.111Z,72.63
2018-07-27T02:30:56.096Z,71.48
2018-07-27T02:31:56.081Z,71.09
2018-07-27T02:32:56.064Z,71.09
2018-07-27T02:33:56.272Z,71.38
2018-07-27T02:34:56.034Z,71.48
2018-07-27T02:35:56.017Z,71.28
2018-07-27T02:36:56.002Z,71.38
2018-07-27T02:37:55.985Z,71.86
2018-07-27T02:38:55.969Z,71.96
2018-07-27T02:39:55.961Z,71.96
2018-07-27T02:40:55.938Z,71.67
2018-07-27T02:41:55.927Z,72.06
2018-07-27T02:42:55.907Z,72.06
2018-07-27T02:43:55.892Z,72.25
2018-07-27T02:44:55.875Z,72.34
2018-07-27T02:45:55.858Z,71.96
2018-07-27T02:46:55.845Z,72.54
2018-07-27T02:47:55.828Z,72.73
2018-07-27T02:48:55.810Z,72.25
2018-07-27T02:49:55.796Z,73.11
2018-07-27T02:50:55.784Z,72.73
2018-07-27T02:51:55.764Z,72.83
2018-07-27T02:52:55.749Z,72.63
2018-07-27T02:53:55.732Z,73.21
2018-07-27T02:54:55.716Z,72.83
2018-07-27T02:55:55.702Z,72.92
2018-07-27T02:56:55.687Z,73.02
2018-07-27T02:57:55.670Z,73.21
2018-07-27T02:58:55.656Z,72.92
2018-07-27T02:59:55.672Z,73.21
2018-07-27T03:00:55.621Z,73.79
2018-07-27T03:01:55.605Z,74.08
2018-07-27T03:02:55.597Z,73.89
2018-07-27T03:03:55.576Z,74.66
2018-07-27T03:04:55.559Z,74.37
2018-07-27T03:05:55.548Z,73.79
2018-07-27T03:06:55.528Z,73.89
2018-07-27T03:07:55.535Z,73.60
2018-07-27T03:08:55.502Z,73.79
2018-07-27T03:09:55.479Z,73.50
2018-07-27T03:10:55.465Z,73.69
2018-07-27T03:11:55.450Z,74.95
2018-07-27T03:12:55.432Z,74.76
2018-07-27T03:13:55.416Z,74.37
2018-07-27T03:14:55.401Z,74.95
2018-07-27T03:15:55.385Z,74.18
2018-07-27T03:16:55.367Z,74.66
2018-07-27T03:17:55.353Z,73.89
2018-07-27T03:18:55.336Z,73.79
2018-07-27T03:19:55.322Z,75.05
2018-07-27T03:20:55.303Z,75.14
2018-07-27T03:21:55.289Z,74.85
2018-07-27T03:22:55.274Z,75.43
2018-07-27T03:23:55.280Z,75.34
2018-07-27T03:24:55.241Z,75.05
2018-07-27T03:25:55.225Z,75.14
2018-07-27T03:26:55.212Z,75.14
2018-07-27T03:27:55.195Z,75.97
2018-07-27T03:28:55.178Z,75.92
2018-07-27T03:29:55.162Z,75.59
2018-07-27T03:30:55.147Z,75.34
2018-07-27T03:31:55.131Z,75.62
2018-07-27T03:32:55.115Z,75.92
2018-07-27T03:33:55.099Z,76.84
2018-07-27T03:34:55.083Z,76.45
2018-07-27T03:35:55.072Z,76.40
2018-07-27T03:36:55.051Z,76.01
2018-07-27T03:37:55.038Z,75.62
2018-07-27T03:38:55.019Z,75.72
2018-07-27T03:39:55.004Z,75.82
2018-07-27T03:40:54.985Z,75.72
2018-07-27T03:41:54.970Z,75.82
2018-07-27T03:42:54.955Z,76.40
2018-07-27T03:43:54.939Z,76.10
2018-07-27T03:44:54.922Z,76.30
2018-07-27T03:45:54.906Z,76.40
2018-07-27T03:46:54.890Z,75.92
2018-07-27T03:47:54.876Z,76.20
2018-07-27T03:48:54.859Z,76.26
2018-07-27T03:49:54.842Z,76.88
2018-07-27T03:50:54.828Z,76.40
2018-07-27T03:51:54.811Z,76.30
2018-07-27T03:52:54.795Z,76.88
2018-07-27T03:53:54.779Z,76.59
2018-07-27T03:54:54.765Z,76.75
2018-07-27T03:55:54.747Z,76.88
2018-07-27T03:56:54.733Z,77.07
2018-07-27T03:57:54.715Z,77.23
2018-07-27T03:58:54.698Z,77.33
2018-07-27T03:59:54.682Z,76.68
2018-07-27T04:00:54.665Z,76.78
2018-07-27T04:01:54.653Z,76.30
2018-07-27T04:02:54.635Z,76.68
2018-07-27T04:03:54.618Z,76.78
2018-07-27T04:04:54.603Z,77.23
2018-07-27T04:05:54.586Z,77.46
2018-07-27T04:06:54.570Z,76.59
2018-07-27T04:07:54.554Z,76.88
2018-07-27T04:08:54.537Z,76.59
2018-07-27T04:09:54.522Z,76.78
2018-07-27T04:10:54.507Z,76.88
2018-07-27T04:11:54.491Z,76.30
2018-07-27T04:12:54.476Z,75.95
2018-07-27T04:13:54.458Z,75.76
2018-07-27T04:14:54.446Z,76.40
2018-07-27T04:15:54.427Z,76.20
2018-07-27T04:16:54.410Z,77.26
2018-07-27T04:17:54.394Z,77.07
2018-07-27T04:18:54.383Z,76.20
2018-07-27T04:19:54.363Z,76.15
2018-07-27T04:20:54.352Z,76.59
2018-07-27T04:21:54.330Z,76.78
2018-07-27T04:22:54.316Z,76.15
2018-07-27T04:23:54.299Z,76.43
2018-07-27T04:24:54.283Z,76.68
2018-07-27T04:25:54.266Z,76.34
2018-07-27T04:26:54.251Z,76.34
2018-07-27T04:27:54.238Z,76.15
2018-07-27T04:28:54.220Z,76.53
2018-07-27T04:29:54.202Z,75.67
2018-07-27T04:30:54.188Z,75.37
2018-07-27T04:31:54.172Z,75.67
2018-07-27T04:32:54.156Z,76.92
2018-07-27T04:33:54.140Z,76.24
2018-07-27T04:34:54.126Z,76.72
2018-07-27T04:35:54.109Z,76.43
2018-07-27T04:36:54.091Z,76.24
2018-07-27T04:37:54.075Z,76.34
2018-07-27T04:38:54.061Z,76.53
2018-07-27T04:39:54.044Z,77.01
2018-07-27T04:40:54.028Z,76.43
2018-07-27T04:41:54.012Z,76.53
2018-07-27T04:42:54.020Z,75.85
2018-07-27T04:43:53.980Z,75.67
2018-07-27T04:44:53.965Z,76.72
2018-07-27T04:45:53.949Z,77.01
2018-07-27T04:46:53.937Z,76.92
2018-07-27T04:47:53.917Z,76.82
2018-07-27T04:48:53.900Z,76.72
2018-07-27T04:49:53.885Z,75.85
2018-07-27T04:50:53.868Z,75.99
2018-07-27T04:51:53.853Z,75.41
2018-07-27T04:52:53.836Z,75.95
2018-07-27T04:53:53.823Z,75.31
2018-07-27T04:54:53.805Z,75.31
2018-07-27T04:55:53.789Z,76.43
2018-07-27T04:56:53.773Z,76.05
2018-07-27T04:57:53.756Z,75.31
2018-07-27T04:58:53.740Z,75.27
2018-07-27T04:59:53.725Z,75.67
2018-07-27T05:00:53.707Z,75.41
2018-07-27T05:01:53.693Z,75.41
2018-07-27T05:02:53.678Z,75.37
2018-07-27T05:03:53.661Z,76.24
2018-07-27T05:04:53.643Z,75.41
2018-07-27T05:05:53.628Z,75.22
2018-07-27T05:06:53.613Z,75.31
2018-07-27T05:07:53.597Z,74.64
2018-07-27T05:08:53.579Z,74.16
2018-07-27T05:09:53.564Z,75.95
2018-07-27T05:10:53.550Z,75.22
2018-07-27T05:11:53.555Z,74.64
2018-07-27T05:12:53.517Z,74.25
2018-07-27T05:13:53.499Z,75.12
2018-07-27T05:14:53.489Z,74.38
2018-07-27T05:15:53.466Z,74.44
2018-07-27T05:16:53.451Z,74.83
2018-07-27T05:17:53.437Z,74.29
2018-07-27T05:18:53.418Z,74.00
2018-07-27T05:19:53.403Z,74.00
2018-07-27T05:20:53.386Z,74.44
2018-07-27T05:21:53.370Z,74.35
2018-07-27T05:22:53.354Z,74.87
2018-07-27T05:23:53.340Z,73.90
2018-07-27T05:24:53.323Z,73.42
2018-07-27T05:25:53.306Z,73.80
2018-07-27T05:26:53.291Z,73.61
2018-07-27T05:27:53.275Z,73.80
2018-07-27T05:28:53.261Z,74.19
2018-07-27T05:29:53.245Z,73.90
2018-07-27T05:30:53.229Z,73.13
2018-07-27T05:31:53.211Z,72.94
2018-07-27T05:32:53.195Z,73.22
2018-07-27T05:33:53.185Z,73.32
2018-07-27T05:34:53.166Z,73.42
2018-07-27T05:35:53.149Z,72.78
2018-07-27T05:36:53.131Z,72.30
2018-07-27T05:37:53.116Z,71.72
2018-07-27T05:38:53.101Z,71.81
2018-07-27T05:39:53.087Z,72.20
2018-07-27T05:40:53.069Z,72.39
2018-07-27T05:41:53.053Z,72.58
2018-07-27T05:42:53.039Z,72.39
2018-07-27T05:43:53.024Z,72.30
2018-07-27T05:44:53.007Z,72.00
2018-07-27T05:45:52.991Z,72.00
2018-07-27T05:46:53.008Z,72.04
2018-07-27T05:47:52.961Z,71.46
2018-07-27T05:48:52.944Z,71.66
2018-07-27T05:49:52.929Z,71.75
2018-07-27T05:50:52.914Z,71.08
2018-07-27T05:51:52.900Z,71.11
2018-07-27T05:52:52.884Z,70.62
2018-07-27T05:53:52.868Z,70.68
2018-07-27T05:54:52.857Z,70.68
2018-07-27T05:55:52.837Z,70.72
2018-07-27T05:56:52.822Z,70.24
2018-07-27T05:57:52.807Z,70.24
2018-07-27T05:58:52.794Z,70.24
2018-07-27T05:59:52.776Z,70.14
2018-07-27T06:00:52.761Z,70.24
2018-07-27T06:01:52.788Z,70.34
2018-07-27T06:02:52.738Z,69.85
2018-07-27T06:03:52.720Z,69.85
2018-07-27T06:04:52.741Z,69.85
2018-07-27T06:05:52.686Z,69.46
2018-07-27T06:06:52.672Z,69.27
2018-07-27T06:07:52.657Z,69.79
2018-07-27T06:08:52.641Z,69.01
2018-07-27T06:09:52.625Z,68.73
2018-07-27T06:10:52.610Z,68.24
2018-07-27T06:11:52.597Z,68.33
2018-07-27T06:12:52.581Z,68.73
2018-07-27T06:13:52.566Z,68.43
2018-07-27T06:14:52.552Z,68.27
2018-07-27T06:15:52.539Z,68.18
2018-07-27T06:16:52.523Z,67.60
2018-07-27T06:17:52.621Z,67.60
2018-07-27T06:18:52.494Z,67.60
2018-07-27T06:19:52.480Z,67.69
2018-07-27T06:20:52.489Z,67.50
2018-07-27T06:21:52.455Z,67.98
2018-07-27T06:22:52.438Z,66.92
2018-07-27T06:23:52.499Z,66.92
2018-07-27T06:24:52.408Z,66.47
2018-07-27T06:25:52.394Z,66.75
2018-07-27T06:26:52.381Z,66.47
2018-07-27T06:27:52.367Z,65.98
2018-07-27T06:28:52.351Z,65.79
2018-07-27T06:29:52.372Z,66.08
2018-07-27T06:30:52.348Z,66.11
2018-07-27T06:31:52.310Z,65.43
2018-07-27T06:32:52.294Z,65.43
2018-07-27T06:33:52.282Z,65.43
2018-07-27T06:34:52.268Z,65.24
2018-07-27T06:35:52.254Z,65.72
2018-07-27T06:36:52.240Z,65.63
2018-07-27T06:37:52.224Z,65.75
2018-07-27T06:38:52.211Z,64.30
2018-07-27T06:39:52.198Z,64.01
2018-07-27T06:40:52.184Z,63.26
2018-07-27T06:41:52.170Z,62.32
2018-07-27T06:42:52.156Z,61.48
2018-07-27T06:43:52.148Z,60.44
2018-07-27T06:44:52.129Z,60.51
2018-07-27T06:45:52.119Z,60.90
2018-07-27T06:46:52.103Z,59.95
2018-07-27T06:47:52.091Z,59.31
2018-07-27T06:48:52.080Z,59.01
2018-07-27T06:49:52.067Z,58.17
2018-07-27T06:50:52.056Z,57.51
2018-07-27T06:51:52.047Z,56.67
2018-07-27T06:52:52.035Z,56.37
2018-07-27T06:53:52.022Z,55.86
2018-07-27T06:54:52.010Z,56.09
2018-07-27T06:55:52.000Z,55.30
2018-07-27T06:56:51.989Z,54.55
2018-07-27T06:57:51.978Z,54.28
2018-07-27T06:58:51.969Z,53.89
2018-07-27T06:59:51.959Z,53.21
2018-07-27T07:00:51.951Z,54.03
2018-07-27T07:01:51.942Z,55.13
2018-07-27T07:02:51.932Z,53.70
2018-07-27T07:03:51.924Z,53.05
2018-07-27T07:04:51.915Z,52.00
2018-07-27T07:05:51.906Z,51.70
2018-07-27T07:06:51.896Z,51.61
2018-07-27T07:07:51.891Z,51.70
2018-07-27T07:08:51.881Z,51.53
2018-07-27T07:09:51.874Z,50.75
2018-07-27T07:10:51.864Z,51.02
2018-07-27T07:11:51.856Z,51.04
2018-07-27T07:12:51.849Z,50.78
2018-07-27T07:13:51.841Z,49.71
2018-07-27T07:14:51.834Z,49.04
2018-07-27T07:15:51.828Z,49.80
2018-07-27T07:16:51.819Z,49.61
2018-07-27T07:17:51.814Z,49.80
2018-07-27T07:18:51.806Z,48.85
2018-07-27T07:19:51.800Z,49.22
2018-07-27T07:20:51.790Z,48.75
2018-07-27T07:21:51.787Z,47.53
2018-07-27T07:22:51.782Z,46.84
2018-07-27T07:23:51.771Z,45.79
2018-07-27T07:24:51.764Z,45.89
2018-07-27T07:25:52.089Z,45.57
2018-07-27T07:26:51.752Z,45.72
2018-07-27T07:27:51.747Z,46.72
2018-07-27T07:28:51.739Z,47.19
2018-07-27T07:29:51.733Z,47.33
2018-07-27T07:30:51.725Z,46.16
2018-07-27T07:31:51.718Z,45.13
2018-07-27T07:32:51.712Z,45.01
2018-07-27T07:33:51.705Z,44.62
2018-07-27T07:34:51.700Z,42.84
2018-07-27T07:35:51.691Z,40.56
2018-07-27T07:36:51.683Z,39.19
2018-07-27T07:37:51.675Z,40.33
2018-07-27T07:38:51.668Z,39.40
2018-07-27T07:39:51.671Z,37.87
2018-07-27T07:40:51.654Z,38.31
2018-07-27T07:41:51.648Z,36.71
2018-07-27T07:42:51.641Z,35.86
2018-07-27T07:43:51.693Z,34.82
2018-07-27T07:44:51.627Z,32.97
2018-07-27T07:45:51.621Z,35.07
2018-07-27T07:46:51.615Z,35.00
2018-07-27T07:47:51.609Z,36.53
2018-07-27T07:48:51.603Z,37.96
2018-07-27T07:49:51.595Z,40.19
2018-07-27T07:50:51.590Z,38.64
2018-07-27T07:51:51.582Z,37.02
2018-07-27T07:52:51.575Z,35.27
2018-07-27T07:53:51.572Z,34.03
2018-07-27T07:54:51.561Z,31.13
2018-07-27T07:55:51.555Z,29.69
2018-07-27T07:56:51.547Z,28.81
2018-07-27T07:57:51.542Z,28.25
2018-07-27T07:58:51.538Z,27.94
2018-07-27T07:59:51.530Z,29.27
2018-07-27T08:00:51.525Z,30.74
2018-07-27T08:01:51.518Z,29.65
2018-07-27T08:02:51.513Z,33.38
2018-07-27T08:03:51.508Z,32.77
2018-07-27T08:04:51.500Z,30.83
2018-07-27T08:05:51.495Z,28.90
2018-07-27T08:06:51.489Z,30.50
2018-07-27T08:07:51.483Z,31.96
2018-07-27T08:08:51.477Z,33.72
2018-07-27T08:09:51.471Z,34.54
2018-07-27T08:10:51.463Z,36.42
2018-07-27T08:11:51.456Z,37.99
2018-07-27T08:12:51.448Z,34.38
2018-07-27T08:13:51.442Z,32.64
2018-07-27T08:14:51.434Z,29.57
2018-07-27T08:15:51.428Z,30.20
2018-07-27T08:16:51.419Z,28.85
2018-07-27T08:17:51.413Z,28.20
2018-07-27T08:18:51.406Z,27.23
2018-07-27T08:19:51.399Z,26.17
2018-07-27T08:20:51.391Z,25.00
2018-07-27T08:21:51.385Z,25.19
2018-07-27T08:22:51.379Z,25.20
2018-07-27T08:23:51.376Z,25.98
2018-07-27T08:24:51.367Z,25.42
2018-07-27T08:25:51.373Z,29.34
2018-07-27T08:26:51.356Z,27.43
2018-07-27T08:27:51.349Z,26.91
2018-07-27T08:28:51.343Z,26.08
2018-07-27T08:29:51.338Z,25.05
2018-07-27T08:30:51.331Z,29.61
2018-07-27T08:31:51.326Z,28.27
2018-07-27T08:32:51.318Z,27.42
2018-07-27T08:33:51.314Z,29.55
2018-07-27T08:34:51.309Z,30.88
2018-07-27T08:35:51.302Z,28.39
2018-07-27T08:36:51.297Z,25.59
2018-07-27T08:37:51.288Z,24.72
2018-07-27T08:38:51.332Z,24.91
2018-07-27T08:39:51.278Z,26.64
2018-07-27T08:40:51.272Z,24.88
2018-07-27T08:41:51.265Z,27.55
2018-07-27T08:42:51.259Z,33.26
2018-07-27T08:43:51.255Z,38.98
2018-07-27T08:44:51.245Z,35.11
2018-07-27T08:45:51.239Z,30.09
2018-07-27T08:46:51.233Z,30.10
2018-07-27T08:47:51.226Z,26.95
2018-07-27T08:48:51.218Z,26.34
2018-07-27T08:49:51.213Z,25.59
2018-07-27T08:50:51.207Z,23.86
2018-07-27T08:51:51.200Z,24.05
2018-07-27T08:52:51.191Z,23.86
2018-07-27T08:53:51.186Z,26.73
2018-07-27T08:54:51.179Z,24.91
2018-07-27T08:55:51.174Z,23.28
2018-07-27T08:56:51.167Z,26.21
2018-07-27T08:57:51.162Z,24.79
2018-07-27T08:58:51.154Z,26.23
2018-07-27T08:59:51.151Z,24.99
2018-07-27T09:00:51.146Z,23.46
2018-07-27T09:01:51.135Z,23.91
2018-07-27T09:02:51.129Z,26.12
2018-07-27T09:03:51.149Z,24.99
2018-07-27T09:04:51.116Z,24.04
2018-07-27T09:05:51.110Z,23.32
2018-07-27T09:06:51.103Z,24.29
2018-07-27T09:07:51.097Z,25.21
2018-07-27T09:08:51.090Z,29.63
2018-07-27T09:09:51.084Z,35.19
2018-07-27T09:10:51.078Z,36.33
2018-07-27T09:11:51.069Z,36.47
2018-07-27T09:12:51.063Z,36.37
2018-07-27T09:13:51.055Z,36.39
2018-07-27T09:14:51.049Z,35.46
2018-07-27T09:15:51.040Z,33.25
2018-07-27T09:16:51.032Z,29.61
2018-07-27T09:17:51.024Z,28.37
2018-07-27T09:18:51.017Z,30.71
2018-07-27T09:19:51.013Z,28.64
2018-07-27T09:20:51.001Z,25.93
2018-07-27T09:21:50.995Z,24.69
2018-07-27T09:22:50.986Z,27.15
2018-07-27T09:23:50.980Z,29.23
2018-07-27T09:24:51.171Z,26.21
2018-07-27T09:25:50.963Z,25.08
2018-07-27T09:26:50.956Z,28.30
2018-07-27T09:27:50.948Z,30.32
2018-07-27T09:28:50.940Z,27.28
2018-07-27T09:29:50.932Z,24.71
2018-07-27T09:30:50.925Z,23.25
2018-07-27T09:31:50.918Z,23.61
2018-07-27T09:32:50.910Z,24.33
2018-07-27T09:33:50.902Z,26.98
2018-07-27T09:34:50.895Z,26.07
2018-07-27T09:35:50.889Z,27.28
2018-07-27T09:36:50.880Z,24.83
2018-07-27T09:37:50.873Z,26.59
2018-07-27T09:38:50.866Z,25.13
2018-07-27T09:39:50.859Z,26.90
2018-07-27T09:40:50.851Z,25.82
2018-07-27T09:41:50.845Z,24.21
2018-07-27T09:42:50.837Z,23.44
2018-07-27T09:43:50.832Z,22.06
2018-07-27T09:44:50.822Z,22.63
2018-07-27T09:45:50.816Z,21.99
2018-07-27T09:46:50.810Z,26.43
2018-07-27T09:47:50.804Z,32.69
2018-07-27T09:48:50.796Z,35.08
2018-07-27T09:49:50.790Z,30.71
2018-07-27T09:50:50.782Z,30.26
2018-07-27T09:51:50.776Z,26.54
2018-07-27T09:52:50.768Z,23.94
2018-07-27T09:53:50.794Z,22.74
2018-07-27T09:54:50.755Z,23.15
2018-07-27T09:55:50.750Z,21.30
2018-07-27T09:56:50.740Z,20.92
2018-07-27T09:57:50.749Z,21.00
2018-07-27T09:58:50.729Z,24.93
2018-07-27T09:59:50.722Z,28.10
2018-07-27T10:00:50.715Z,33.77
2018-07-27T10:01:50.708Z,34.49
2018-07-27T10:02:50.702Z,27.70
2018-07-27T10:03:50.694Z,24.79
2018-07-27T10:04:50.686Z,23.24
2018-07-27T10:05:50.727Z,22.64
2018-07-27T10:06:50.674Z,23.41
2018-07-27T10:07:50.666Z,23.54
2018-07-27T10:08:50.658Z,21.60
2018-07-27T10:09:50.652Z,20.43
2018-07-27T10:10:50.647Z,24.38
2018-07-27T10:11:50.640Z,30.02
2018-07-27T10:12:50.694Z,27.47
2018-07-27T10:13:50.625Z,24.66
2018-07-27T10:14:50.619Z,25.95
2018-07-27T10:15:50.612Z,24.82
2018-07-27T10:16:50.604Z,28.70
2018-07-27T10:17:50.596Z,25.24
2018-07-27T10:18:50.592Z,27.56
2018-07-27T10:19:50.583Z,26.15
2018-07-27T10:20:50.576Z,26.72
2018-07-27T10:21:50.568Z,27.01
2018-07-27T10:22:50.560Z,24.84
2018-07-27T10:23:50.553Z,29.27
2018-07-27T10:24:50.544Z,32.81
2018-07-27T10:25:50.537Z,30.80
2018-07-27T10:26:50.531Z,26.80
2018-07-27T10:27:50.523Z,29.35
2018-07-27T10:28:50.514Z,26.04
2018-07-27T10:29:50.507Z,24.72
2018-07-27T10:30:50.499Z,25.10
2018-07-27T10:31:50.492Z,23.32
2018-07-27T10:32:50.482Z,21.83
2018-07-27T10:33:50.475Z,29.48
2018-07-27T10:34:50.466Z,33.48
2018-07-27T10:35:50.460Z,27.87
2018-07-27T10:36:50.451Z,25.04
2018-07-27T10:37:50.442Z,26.84
2018-07-27T10:38:50.436Z,24.97
2018-07-27T10:39:50.427Z,21.69
2018-07-27T10:40:50.420Z,23.28
2018-07-27T10:41:50.412Z,24.40
2018-07-27T10:42:50.407Z,22.66
2018-07-27T10:43:50.398Z,27.11
2018-07-27T10:44:50.423Z,25.04
2018-07-27T10:45:50.384Z,23.55
2018-07-27T10:46:50.377Z,21.38
2018-07-27T10:47:50.370Z,21.06
2018-07-27T10:48:50.364Z,21.04
2018-07-27T10:49:50.357Z,27.09
2018-07-27T10:50:50.351Z,31.74
2018-07-27T10:51:50.344Z,33.72
2018-07-27T10:52:50.338Z,33.61
2018-07-27T10:53:50.331Z,27.08
2018-07-27T10:54:50.325Z,24.38
2018-07-27T10:55:50.318Z,22.25
2018-07-27T10:56:50.311Z,20.32
2018-07-27T10:57:50.309Z,25.56
2018-07-27T10:58:50.298Z,29.48
2018-07-27T10:59:50.292Z,25.04
2018-07-27T11:00:50.284Z,24.92
2018-07-27T11:01:50.279Z,24.08
2018-07-27T11:02:50.272Z,24.26
2018-07-27T11:03:50.269Z,23.49
2018-07-27T11:04:50.260Z,22.73
2018-07-27T11:05:50.259Z,23.55
2018-07-27T11:06:50.247Z,29.69
2018-07-27T11:07:50.239Z,34.21
2018-07-27T11:08:50.246Z,35.96
2018-07-27T11:09:50.273Z,36.82
2018-07-27T11:10:50.220Z,37.29
2018-07-27T11:11:50.214Z,32.28
2018-07-27T11:12:50.205Z,27.18
2018-07-27T11:13:50.200Z,26.59
2018-07-27T11:14:50.192Z,24.67
2018-07-27T11:15:50.184Z,22.33
2018-07-27T11:16:50.177Z,22.44
2018-07-27T11:17:50.185Z,20.79
2018-07-27T11:18:50.164Z,22.62
2018-07-27T11:19:50.158Z,23.92
2018-07-27T11:20:50.151Z,24.03
2018-07-27T11:21:50.145Z,24.26
2018-07-27T11:22:50.139Z,24.25
2018-07-27T11:23:50.132Z,25.04
2018-07-27T11:24:50.124Z,24.16
2018-07-27T11:25:50.118Z,23.73
2018-07-27T11:26:50.112Z,26.62
2018-07-27T11:27:50.105Z,32.31
2018-07-27T11:28:50.098Z,33.85
2018-07-27T11:29:50.091Z,33.87
2018-07-27T11:30:50.085Z,34.23
2018-07-27T11:31:50.080Z,33.82
2018-07-27T11:32:50.071Z,30.72
2018-07-27T11:33:50.065Z,29.93
2018-07-27T11:34:50.057Z,32.21
2018-07-27T11:35:50.052Z,34.42
2018-07-27T11:36:50.045Z,34.70
2018-07-27T11:37:50.037Z,36.16
2018-07-27T11:38:50.030Z,37.19
2018-07-27T11:39:50.025Z,36.61
2018-07-27T11:40:50.015Z,36.43
2018-07-27T11:41:50.007Z,36.16
2018-07-27T11:42:49.999Z,36.61
2018-07-27T11:43:49.992Z,37.77
2018-07-27T11:44:49.983Z,38.76
2018-07-27T11:45:49.976Z,38.06
2018-07-27T11:46:49.968Z,37.59
2018-07-27T11:47:49.959Z,37.31
2018-07-27T11:48:49.953Z,37.79
2018-07-27T11:49:49.941Z,37.67
2018-07-27T11:50:49.933Z,37.57
2018-07-27T11:51:49.924Z,39.04
2018-07-27T11:52:49.915Z,39.04
2018-07-27T11:53:49.908Z,36.79
2018-07-27T11:54:49.900Z,38.14
2018-07-27T11:55:49.890Z,37.65
2018-07-27T11:56:49.883Z,38.61
2018-07-27T11:57:49.872Z,38.90
2018-07-27T11:58:49.863Z,38.14
2018-07-27T11:59:49.853Z,39.00
2018-07-27T12:00:49.845Z,39.39
2018-07-27T12:01:49.833Z,39.69
2018-07-27T12:02:49.823Z,39.59
2018-07-27T12:03:49.813Z,39.49
2018-07-27T12:04:49.803Z,39.20
2018-07-27T12:05:49.794Z,40.16
2018-07-27T12:06:49.783Z,39.75
2018-07-27T12:07:49.772Z,40.06
2018-07-27T12:08:49.761Z,39.98
2018-07-27T12:09:49.750Z,40.08
2018-07-27T12:10:49.740Z,39.70
2018-07-27T12:11:49.729Z,38.84
2018-07-27T12:12:49.718Z,38.82
2018-07-27T12:13:49.739Z,38.65
2018-07-27T12:14:49.810Z,39.00
2018-07-27T12:15:49.687Z,39.47
2018-07-27T12:16:49.676Z,39.49
2018-07-27T12:17:49.666Z,39.49
2018-07-27T12:18:49.657Z,39.78
2018-07-27T12:19:49.645Z,39.78
2018-07-27T12:20:49.746Z,39.78
2018-07-27T12:21:49.790Z,39.47
2018-07-27T12:22:49.612Z,39.78
2018-07-27T12:23:49.602Z,39.96
2018-07-27T12:24:49.591Z,39.49
2018-07-27T12:25:49.582Z,39.39
2018-07-27T12:26:49.570Z,39.69
2018-07-27T12:27:49.559Z,39.51
2018-07-27T12:28:49.549Z,39.78
2018-07-27T12:29:49.539Z,39.49
2018-07-27T12:30:49.530Z,39.86
2018-07-27T12:31:49.519Z,39.76
2018-07-27T12:32:49.510Z,38.59
2018-07-27T12:33:49.498Z,37.62
2018-07-27T12:34:49.487Z,38.69
2018-07-27T12:35:49.477Z,38.22
2018-07-27T12:36:49.465Z,38.90
2018-07-27T12:37:49.455Z,39.49
2018-07-27T12:38:49.467Z,39.28
2018-07-27T12:39:49.436Z,39.10
2018-07-27T12:40:49.423Z,39.10
2018-07-27T12:41:49.415Z,39.49
2018-07-27T12:42:49.403Z,39.61
2018-07-27T12:43:49.393Z,39.04
2018-07-27T12:44:49.384Z,37.88
2018-07-27T12:45:49.371Z,38.35
2018-07-27T12:46:49.363Z,37.85
2018-07-27T12:47:49.351Z,37.63
2018-07-27T12:48:49.340Z,39.00
2018-07-27T12:49:49.330Z,39.23
2018-07-27T12:50:49.323Z,37.08
2018-07-27T12:51:49.311Z,36.41
2018-07-27T12:52:49.299Z,36.79